createdAt,value
2022-07-29T00:02:16.933Z,12.52
2022-07-29T00:04:43.725Z,11.40
2022-07-29T00:07:10.466Z,7.50
2022-07-29T00:09:41.953Z,7.32
2022-07-29T00:12:25.108Z,7.47
2022-07-29T00:14:56.239Z,8.23
2022-07-29T00:17:26.425Z,7.75
2022-07-29T00:19:53.573Z,8.67
2022-07-29T00:22:20.928Z,7.75
2022-07-29T00:24:50.919Z,9.73
2022-07-29T00:27:18.398Z,10.45
2022-07-29T00:29:45.411Z,10.48
2022-07-29T00:32:12.182Z,8.10
2022-07-29T00:34:57.273Z,10.02
2022-07-29T00:37:24.107Z,8.85
2022-07-29T00:39:51.358Z,8.68
2022-07-29T00:42:18.065Z,8.30
2022-07-29T00:44:44.832Z,9.43
2022-07-29T00:47:12.774Z,9.32
2022-07-29T00:49:41.511Z,9.63
2022-07-29T00:52:10.171Z,9.90
2022-07-29T00:54:39.829Z,9.38
2022-07-29T00:57:12.514Z,8.87
2022-07-29T00:59:39.279Z,8.55
2022-07-29T01:02:06.125Z,11.65
2022-07-29T01:04:33.251Z,12.75
2022-07-29T01:07:02.531Z,8.75
2022-07-29T01:09:42.120Z,12.77
2022-07-29T01:12:14.688Z,11.68
2022-07-29T01:14:42.052Z,12.38
2022-07-29T01:17:15.038Z,10.57
2022-07-29T01:20:00.545Z,9.15
2022-07-29T01:22:50.393Z,13.33
2022-07-29T01:25:46.547Z,9.68
2022-07-29T01:28:36.017Z,9.77
2022-07-29T01:31:06.284Z,10.70
2022-07-29T01:33:51.453Z,11.73
2022-07-29T01:36:30.077Z,10.77
2022-07-29T01:39:15.288Z,11.13
2022-07-29T01:41:51.723Z,12.10
2022-07-29T01:44:27.970Z,11.43
2022-07-29T01:46:59.132Z,11.35
2022-07-29T01:49:29.673Z,10.97
2022-07-29T01:52:12.089Z,12.43
2022-07-29T01:54:46.844Z,11.48
2022-07-29T01:57:18.344Z,12.15
2022-07-29T01:59:47.861Z,10.60
2022-07-29T02:02:17.429Z,12.77
2022-07-29T02:04:49.351Z,12.25
2022-07-29T02:07:20.460Z,13.98
2022-07-29T02:09:50.270Z,13.13
2022-07-29T02:12:20.120Z,12.45
2022-07-29T02:14:50.088Z,14.67
2022-07-29T02:17:23.557Z,17.88
2022-07-29T02:19:51.258Z,21.70
2022-07-29T02:22:20.651Z,18.48
2022-07-29T02:24:50.241Z,16.45
2022-07-29T02:27:18.924Z,18.17
2022-07-29T02:29:48.299Z,19.63
2022-07-29T02:32:17.041Z,18.15
2022-07-29T02:34:45.732Z,19.00
2022-07-29T02:37:13.842Z,23.73
2022-07-29T02:39:43.170Z,19.60
2022-07-29T02:42:18.222Z,18.85
2022-07-29T02:44:45.133Z,29.83
2022-07-29T02:47:16.355Z,28.83
2022-07-29T02:50:03.562Z,18.27
2022-07-29T02:52:38.859Z,20.17
2022-07-29T02:55:20.531Z,29.02
2022-07-29T02:58:02.418Z,22.05
2022-07-29T03:00:32.465Z,21.42
2022-07-29T03:03:04.365Z,23.83
2022-07-29T03:05:32.344Z,28.00
2022-07-29T03:08:03.889Z,23.42
2022-07-29T03:10:32.089Z,24.48
2022-07-29T03:13:00.735Z,22.30
2022-07-29T03:15:28.190Z,31.98
2022-07-29T03:17:56.592Z,31.47
2022-07-29T03:20:23.981Z,26.42
2022-07-29T03:22:51.081Z,19.92
2022-07-29T03:25:20.003Z,23.80
2022-07-29T03:27:48.176Z,28.95
2022-07-29T03:30:21.746Z,49.40
2022-07-29T03:32:52.223Z,31.35
2022-07-29T03:35:20.625Z,26.52
2022-07-29T03:37:47.743Z,23.88
2022-07-29T03:40:20.842Z,21.15
2022-07-29T03:42:49.468Z,18.57
2022-07-29T03:45:19.695Z,17.60
2022-07-29T03:48:01.198Z,17.83
2022-07-29T03:50:29.934Z,19.55
2022-07-29T03:52:56.848Z,29.25
2022-07-29T03:55:24.421Z,31.87
2022-07-29T03:57:53.324Z,20.50
2022-07-29T04:00:20.553Z,25.88
2022-07-29T04:02:49.434Z,20.90
2022-07-29T04:05:17.339Z,24.92
2022-07-29T04:07:47.961Z,26.40
2022-07-29T04:10:16.648Z,23.33
2022-07-29T04:12:43.712Z,24.13
2022-07-29T04:15:11.031Z,24.30
2022-07-29T04:17:37.931Z,21.50
2022-07-29T04:20:05.613Z,24.17
2022-07-29T04:22:32.332Z,24.10
2022-07-29T04:25:03.357Z,26.27
2022-07-29T04:27:30.843Z,25.25
2022-07-29T04:29:57.797Z,23.52
2022-07-29T04:32:25.751Z,26.43
2022-07-29T04:34:52.429Z,27.20
2022-07-29T04:37:19.273Z,26.48
2022-07-29T04:39:45.919Z,28.45
2022-07-29T04:42:12.597Z,28.33
2022-07-29T04:44:42.840Z,26.13
2022-07-29T04:47:10.155Z,29.13
2022-07-29T04:49:39.567Z,29.90
2022-07-29T04:52:07.594Z,29.10
2022-07-29T04:54:34.490Z,25.20
2022-07-29T04:57:01.183Z,26.03
2022-07-29T04:59:28.039Z,21.88
2022-07-29T05:01:54.958Z,21.42
2022-07-29T05:04:21.754Z,19.52
2022-07-29T05:06:48.844Z,18.52
2022-07-29T05:09:15.629Z,16.37
2022-07-29T05:11:42.334Z,16.67
2022-07-29T05:14:09.088Z,14.68
2022-07-29T05:16:36.096Z,14.80
2022-07-29T05:19:02.809Z,15.63
2022-07-29T05:21:29.517Z,14.97
2022-07-29T05:23:56.308Z,15.13
2022-07-29T05:26:23.157Z,15.57
2022-07-29T05:28:50.090Z,15.13
2022-07-29T05:31:16.851Z,12.70
2022-07-29T05:33:43.654Z,12.00
2022-07-29T05:36:10.476Z,12.30
2022-07-29T05:38:37.525Z,12.93
2022-07-29T05:41:07.742Z,12.32
2022-07-29T05:43:34.451Z,11.80
2022-07-29T05:46:01.484Z,11.83
2022-07-29T05:48:28.303Z,11.77
2022-07-29T05:50:55.781Z,10.02
2022-07-29T05:53:22.781Z,10.35
2022-07-29T05:55:49.885Z,9.07
2022-07-29T05:58:17.143Z,8.70
2022-07-29T06:00:44.180Z,9.57
2022-07-29T06:03:10.861Z,8.30
2022-07-29T06:05:37.936Z,8.52
2022-07-29T06:08:06.759Z,8.85
2022-07-29T06:10:33.782Z,8.10
2022-07-29T06:13:00.572Z,9.43
2022-07-29T06:15:27.429Z,8.57
2022-07-29T06:17:59.048Z,10.05
2022-07-29T06:20:27.796Z,8.35
2022-07-29T06:22:54.532Z,8.17
2022-07-29T06:25:21.313Z,7.30
2022-07-29T06:27:47.997Z,8.45
2022-07-29T06:30:14.930Z,7.07
2022-07-29T06:32:43.316Z,6.60
2022-07-29T06:35:38.346Z,9.33
2022-07-29T06:37:59.512Z,6.20
2022-07-29T06:40:45.739Z,6.72
2022-07-29T06:43:12.529Z,5.80
2022-07-29T06:45:42.283Z,6.65
2022-07-29T06:48:10.497Z,9.90
2022-07-29T06:50:37.224Z,8.35
2022-07-29T06:53:05.081Z,8.38
2022-07-29T06:55:31.870Z,8.60
2022-07-29T06:57:58.517Z,8.43
2022-07-29T07:00:26.299Z,8.00
2022-07-29T07:02:53.050Z,8.65
2022-07-29T07:05:19.786Z,7.15
2022-07-29T07:07:46.499Z,7.93
2022-07-29T07:10:13.204Z,7.90
2022-07-29T07:12:39.894Z,8.37
2022-07-29T07:15:07.186Z,8.20
2022-07-29T07:17:33.929Z,8.48
2022-07-29T07:20:00.618Z,9.65
2022-07-29T07:22:27.308Z,11.35
2022-07-29T07:24:53.946Z,8.97
2022-07-29T07:27:20.650Z,9.93
2022-07-29T07:29:47.357Z,9.48
2022-07-29T07:32:14.518Z,9.52
2022-07-29T07:34:41.392Z,10.88
2022-07-29T07:37:08.128Z,8.30
2022-07-29T07:39:34.885Z,10.02
2022-07-29T07:42:01.667Z,11.18
2022-07-29T07:44:28.391Z,9.85
2022-07-29T07:46:55.171Z,9.80
2022-07-29T07:49:22.264Z,11.70
2022-07-29T07:51:50.680Z,8.60
2022-07-29T07:54:18.922Z,8.98
2022-07-29T07:56:50.321Z,9.18
2022-07-29T07:59:20.215Z,8.63
2022-07-29T08:01:48.193Z,8.97
2022-07-29T08:04:27.681Z,7.75
2022-07-29T08:06:56.483Z,9.13
2022-07-29T08:09:29.666Z,9.25
2022-07-29T08:11:59.134Z,7.90
2022-07-29T08:14:26.078Z,7.10
2022-07-29T08:16:52.858Z,8.82
2022-07-29T08:19:19.685Z,7.30
2022-07-29T08:21:46.544Z,8.23
2022-07-29T08:24:32.090Z,8.18
2022-07-29T08:26:59.188Z,9.43
2022-07-29T08:29:25.934Z,7.30
2022-07-29T08:31:52.898Z,8.00
2022-07-29T08:34:19.776Z,7.40
2022-07-29T08:36:54.434Z,8.07
2022-07-29T08:39:21.101Z,8.17
2022-07-29T08:41:57.186Z,8.35
2022-07-29T08:44:29.724Z,7.97
2022-07-29T08:46:57.926Z,7.80
2022-07-29T08:49:24.679Z,8.35
2022-07-29T08:51:52.558Z,8.73
2022-07-29T08:54:19.860Z,7.45
2022-07-29T08:56:50.911Z,8.25
2022-07-29T08:59:22.068Z,7.97
2022-07-29T09:01:53.680Z,8.10
2022-07-29T09:04:21.930Z,7.47
2022-07-29T09:06:52.208Z,8.40
2022-07-29T09:09:19.129Z,6.63
2022-07-29T09:11:45.924Z,6.57
2022-07-29T09:14:14.310Z,8.95
2022-07-29T09:16:57.854Z,7.93
2022-07-29T09:19:34.402Z,7.82
2022-07-29T09:22:03.859Z,7.75
2022-07-29T09:24:48.226Z,6.88
2022-07-29T09:27:23.458Z,7.45
2022-07-29T09:30:11.576Z,9.40
2022-07-29T09:32:59.216Z,7.13
2022-07-29T09:35:27.010Z,8.38
2022-07-29T09:37:53.920Z,7.97
2022-07-29T09:40:26.391Z,7.00
2022-07-29T09:42:56.483Z,9.40
2022-07-29T09:45:34.153Z,6.72
2022-07-29T09:48:15.066Z,6.72
2022-07-29T09:50:44.981Z,8.20
2022-07-29T09:53:12.335Z,6.55
2022-07-29T09:55:52.204Z,8.73
2022-07-29T09:58:23.561Z,8.32
2022-07-29T10:00:51.833Z,7.13
2022-07-29T10:03:19.043Z,7.43
2022-07-29T10:05:46.830Z,6.80
2022-07-29T10:08:13.861Z,7.37
2022-07-29T10:10:44.522Z,4.90
2022-07-29T10:13:16.402Z,6.32
2022-07-29T10:15:46.056Z,8.63
2022-07-29T10:18:14.994Z,8.20
2022-07-29T10:20:42.431Z,7.33
2022-07-29T10:23:10.227Z,7.80
2022-07-29T10:25:37.101Z,5.70
2022-07-29T10:28:04.061Z,7.15
2022-07-29T10:30:32.179Z,5.45
2022-07-29T10:33:26.902Z,6.43
2022-07-29T10:36:02.605Z,6.90
2022-07-29T10:38:45.958Z,5.40
2022-07-29T10:41:43.567Z,5.18
2022-07-29T10:44:19.320Z,5.85
2022-07-29T10:46:51.534Z,5.30
2022-07-29T10:49:18.323Z,5.90
2022-07-29T10:51:51.200Z,5.22
2022-07-29T10:54:19.240Z,5.85
2022-07-29T10:56:47.664Z,5.47
2022-07-29T10:59:21.558Z,7.73
2022-07-29T11:01:53.657Z,5.60
2022-07-29T11:04:45.801Z,8.10
2022-07-29T11:07:15.169Z,6.05
2022-07-29T11:09:41.972Z,5.32
2022-07-29T11:12:39.380Z,5.40
2022-07-29T11:15:09.108Z,6.25
2022-07-29T11:17:54.379Z,5.00
2022-07-29T11:20:49.919Z,5.25
2022-07-29T11:23:24.446Z,6.47
2022-07-29T11:26:28.225Z,5.10
2022-07-29T11:29:04.536Z,6.88
2022-07-29T11:31:47.191Z,5.85
2022-07-29T11:34:18.286Z,6.35
2022-07-29T11:37:13.822Z,5.75
2022-07-29T11:39:47.955Z,7.33
2022-07-29T11:42:17.728Z,5.95
2022-07-29T11:48:03.467Z,5.63
2022-07-29T11:50:45.782Z,6.38
2022-07-29T11:53:15.377Z,5.80
2022-07-29T11:55:51.057Z,4.90
2022-07-29T11:58:25.078Z,5.85
2022-07-29T12:00:52.855Z,6.97
2022-07-29T12:03:35.157Z,6.80
2022-07-29T12:06:12.313Z,5.20
2022-07-29T12:08:43.829Z,4.47
2022-07-29T12:11:22.501Z,3.55
2022-07-29T12:13:51.805Z,5.65
2022-07-29T12:16:25.970Z,4.43
2022-07-29T12:19:02.352Z,5.37
2022-07-29T12:21:56.266Z,7.40
2022-07-29T12:24:26.701Z,5.40
2022-07-29T12:26:56.569Z,6.82
2022-07-29T12:29:33.982Z,5.65
2022-07-29T12:32:04.654Z,6.57
2022-07-29T12:34:32.186Z,7.32
2022-07-29T12:36:59.192Z,6.05
2022-07-29T12:39:28.900Z,7.55
2022-07-29T12:42:04.091Z,5.38
2022-07-29T12:44:52.405Z,6.50
2022-07-29T12:47:20.394Z,10.48
2022-07-29T12:49:47.960Z,14.60
2022-07-29T12:52:26.540Z,10.75
2022-07-29T12:54:53.283Z,8.73
2022-07-29T12:57:20.436Z,7.43
2022-07-29T13:00:04.954Z,7.43
2022-07-29T13:02:31.779Z,7.80
2022-07-29T13:05:00.470Z,8.90
2022-07-29T13:07:54.430Z,9.95
2022-07-29T13:10:24.321Z,9.10
2022-07-29T13:13:12.719Z,10.27
2022-07-29T13:15:42.101Z,7.90
2022-07-29T13:18:28.254Z,7.47
2022-07-29T13:20:55.712Z,10.25
2022-07-29T13:23:22.428Z,8.10
2022-07-29T13:25:49.190Z,8.57
2022-07-29T13:28:15.874Z,10.40
2022-07-29T13:30:44.530Z,8.70
2022-07-29T13:33:11.898Z,11.63
2022-07-29T13:35:40.039Z,8.57
2022-07-29T13:38:06.962Z,10.18
2022-07-29T13:40:36.225Z,10.90
2022-07-29T13:43:02.941Z,8.05
2022-07-29T13:45:30.803Z,7.60
2022-07-29T13:47:57.461Z,9.67
2022-07-29T13:50:24.232Z,8.63
2022-07-29T13:52:51.867Z,9.05
2022-07-29T13:55:18.951Z,7.95
2022-07-29T13:57:45.906Z,8.63
2022-07-29T14:00:13.801Z,9.57
2022-07-29T14:02:40.500Z,9.13
2022-07-29T14:05:08.926Z,7.38
2022-07-29T14:07:35.779Z,6.82
2022-07-29T14:10:02.706Z,8.45
2022-07-29T14:12:29.582Z,9.57
2022-07-29T14:14:56.244Z,8.50
2022-07-29T14:17:23.720Z,8.80
2022-07-29T14:19:50.441Z,8.35
2022-07-29T14:22:19.888Z,10.68
2022-07-29T14:24:49.793Z,9.93
2022-07-29T14:27:16.537Z,8.85
2022-07-29T14:29:43.500Z,8.80
2022-07-29T14:32:11.519Z,7.85
2022-07-29T14:34:39.014Z,10.02
2022-07-29T14:37:06.941Z,8.47
2022-07-29T14:39:42.677Z,8.60
2022-07-29T14:42:11.573Z,9.00
2022-07-29T14:44:40.491Z,10.80
2022-07-29T14:47:08.406Z,13.75
2022-07-29T14:49:35.983Z,7.63
2022-07-29T14:52:03.418Z,9.73
2022-07-29T14:54:30.090Z,9.63
2022-07-29T14:56:58.490Z,11.10
2022-07-29T14:59:26.935Z,12.02
2022-07-29T15:01:53.798Z,10.20
2022-07-29T15:04:21.111Z,9.52
2022-07-29T15:06:48.278Z,10.50
2022-07-29T15:09:14.993Z,12.45
2022-07-29T15:11:41.729Z,9.90
2022-07-29T15:14:08.726Z,11.67
2022-07-29T15:16:46.694Z,8.85
2022-07-29T15:19:14.961Z,8.48
2022-07-29T15:21:48.787Z,9.90
2022-07-29T15:24:26.196Z,8.65
2022-07-29T15:26:52.941Z,11.20
2022-07-29T15:29:20.230Z,7.85
2022-07-29T15:31:46.955Z,7.68
2022-07-29T15:34:13.778Z,7.70
2022-07-29T15:36:56.305Z,9.75
2022-07-29T15:39:23.315Z,8.90
2022-07-29T15:41:50.792Z,7.93
2022-07-29T15:44:18.150Z,8.10
2022-07-29T15:47:03.636Z,8.43
2022-07-29T15:49:48.368Z,8.63
2022-07-29T15:52:25.171Z,9.10
2022-07-29T15:54:54.162Z,11.07
2022-07-29T15:57:20.864Z,7.93
2022-07-29T15:59:47.574Z,7.38
2022-07-29T16:02:14.262Z,8.38
2022-07-29T16:04:41.202Z,8.33
2022-07-29T16:07:08.004Z,10.65
2022-07-29T16:09:34.731Z,8.23
2022-07-29T16:12:01.462Z,8.25
2022-07-29T16:14:28.800Z,7.20
2022-07-29T16:16:56.532Z,8.03
2022-07-29T16:19:23.598Z,9.07
2022-07-29T16:21:50.306Z,7.47
2022-07-29T16:24:17.035Z,6.68
2022-07-29T16:26:43.720Z,6.35
2022-07-29T16:29:10.480Z,6.33
2022-07-29T16:31:37.254Z,6.43
2022-07-29T16:34:04.118Z,6.45
2022-07-29T16:36:31.354Z,6.68
2022-07-29T16:38:58.033Z,7.05
2022-07-29T16:41:24.716Z,9.30
2022-07-29T16:43:51.366Z,6.47
2022-07-29T16:46:18.814Z,10.02
2022-07-29T16:48:46.418Z,7.43
2022-07-29T16:51:14.244Z,6.78
2022-07-29T16:53:41.766Z,6.43
2022-07-29T16:56:11.241Z,6.75
2022-07-29T16:58:43.509Z,7.30
2022-07-29T17:01:11.168Z,7.72
2022-07-29T17:04:00.115Z,7.55
2022-07-29T17:06:28.646Z,13.77
2022-07-29T17:08:56.633Z,7.55
2022-07-29T17:11:51.847Z,7.70
2022-07-29T17:14:10.578Z,7.63
2022-07-29T17:16:37.466Z,7.63
2022-07-29T17:19:04.477Z,7.10
2022-07-29T17:21:31.403Z,7.07
2022-07-29T17:23:59.482Z,10.07
2022-07-29T17:26:28.226Z,8.40
2022-07-29T17:28:55.965Z,5.53
2022-07-29T17:31:23.425Z,5.43
2022-07-29T17:33:50.345Z,7.25
2022-07-29T17:36:26.921Z,6.18
2022-07-29T17:38:56.332Z,5.50
2022-07-29T17:41:24.274Z,5.53
2022-07-29T17:43:51.407Z,5.10
2022-07-29T17:46:19.153Z,6.57
2022-07-29T17:48:45.997Z,6.95
2022-07-29T17:51:12.846Z,5.82
2022-07-29T17:53:40.026Z,5.63
2022-07-29T17:56:07.060Z,6.43
2022-07-29T17:58:34.561Z,7.05
2022-07-29T18:01:01.294Z,6.15
2022-07-29T18:03:28.042Z,5.90
2022-07-29T18:05:54.737Z,6.78
2022-07-29T18:08:21.378Z,5.30
2022-07-29T18:10:48.173Z,6.38
2022-07-29T18:13:16.364Z,6.93
2022-07-29T18:15:45.236Z,6.55
2022-07-29T18:18:13.424Z,8.18
2022-07-29T18:20:41.068Z,7.63
2022-07-29T18:23:07.765Z,7.15
2022-07-29T18:25:34.673Z,6.20
2022-07-29T18:28:01.517Z,6.30
2022-07-29T18:30:29.722Z,7.85
2022-07-29T18:33:19.742Z,7.53
2022-07-29T18:35:44.734Z,7.40
2022-07-29T18:38:11.541Z,9.80
2022-07-29T18:40:40.031Z,6.93
2022-07-29T18:43:07.247Z,5.32
2022-07-29T18:45:34.152Z,7.73
2022-07-29T18:48:02.241Z,8.80
2022-07-29T18:50:30.014Z,8.52
2022-07-29T18:52:58.661Z,6.43
2022-07-29T18:55:26.191Z,6.47
2022-07-29T18:57:54.301Z,9.30
2022-07-29T19:00:22.767Z,6.85
2022-07-29T19:02:49.941Z,6.53
2022-07-29T19:05:16.692Z,7.70
2022-07-29T19:07:43.615Z,7.43
2022-07-29T19:10:11.213Z,9.27
2022-07-29T19:12:38.002Z,6.72
2022-07-29T19:15:04.944Z,7.75
2022-07-29T19:17:31.608Z,9.10
2022-07-29T19:19:58.312Z,6.63
2022-07-29T19:22:25.057Z,6.33
2022-07-29T19:24:51.816Z,7.80
2022-07-29T19:27:18.879Z,8.15
2022-07-29T19:29:45.896Z,8.07
2022-07-29T19:32:13.485Z,7.40
2022-07-29T19:35:10.381Z,6.23
2022-07-29T19:37:37.458Z,6.90
2022-07-29T19:40:05.666Z,6.97
2022-07-29T19:42:32.459Z,7.78
2022-07-29T19:44:59.197Z,7.70
2022-07-29T19:47:25.988Z,7.57
2022-07-29T19:49:52.784Z,6.97
2022-07-29T19:52:19.511Z,7.00
2022-07-29T19:54:46.268Z,7.10
2022-07-29T19:57:13.012Z,8.73
2022-07-29T19:59:41.165Z,7.67
2022-07-29T20:02:10.888Z,8.05
2022-07-29T20:04:38.670Z,7.28
2022-07-29T20:07:06.615Z,8.82
2022-07-29T20:09:33.415Z,10.05
2022-07-29T20:12:00.345Z,9.77
2022-07-29T20:14:27.042Z,8.82
2022-07-29T20:16:54.369Z,7.40
2022-07-29T20:19:21.427Z,7.75
2022-07-29T20:21:48.227Z,7.40
2022-07-29T20:24:14.970Z,6.50
2022-07-29T20:26:41.740Z,7.45
2022-07-29T20:29:09.084Z,7.43
2022-07-29T20:31:36.034Z,8.38
2022-07-29T20:34:04.192Z,7.18
2022-07-29T20:36:31.067Z,8.70
2022-07-29T20:38:59.950Z,8.68
2022-07-29T20:41:27.233Z,8.25
2022-07-29T20:43:53.978Z,8.57
2022-07-29T20:46:21.234Z,9.73
2022-07-29T20:48:48.153Z,8.87
2022-07-29T20:51:14.986Z,8.13
2022-07-29T20:53:41.833Z,10.57
2022-07-29T20:56:08.794Z,7.80
2022-07-29T20:58:36.534Z,8.65
2022-07-29T21:01:04.115Z,9.30
2022-07-29T21:03:31.606Z,8.43
2022-07-29T21:05:59.514Z,8.07
2022-07-29T21:08:27.237Z,9.68
2022-07-29T21:10:54.710Z,8.65
2022-07-29T21:13:22.974Z,10.27
2022-07-29T21:15:51.693Z,9.02
2022-07-29T21:18:32.666Z,9.50
2022-07-29T21:21:00.871Z,8.63
2022-07-29T21:23:28.170Z,8.82
2022-07-29T21:25:55.231Z,8.00
2022-07-29T21:28:40.813Z,7.90
2022-07-29T21:31:14.822Z,10.02
2022-07-29T21:33:45.887Z,9.55
2022-07-29T21:36:47.661Z,8.65
2022-07-29T21:39:06.736Z,8.67
2022-07-29T21:41:34.291Z,8.90
2022-07-29T21:44:01.442Z,9.07
2022-07-29T21:46:28.385Z,9.10
2022-07-29T21:48:55.138Z,8.93
2022-07-29T21:51:22.054Z,8.10
2022-07-29T21:53:48.822Z,8.88
2022-07-29T21:56:15.569Z,8.57
2022-07-29T21:58:44.791Z,9.43
2022-07-29T22:01:11.555Z,9.38
2022-07-29T22:03:38.351Z,10.10
2022-07-29T22:06:05.059Z,10.75
2022-07-29T22:08:31.722Z,12.02
2022-07-29T22:10:58.363Z,10.30
2022-07-29T22:13:25.032Z,11.60
2022-07-29T22:15:51.822Z,10.90
2022-07-29T22:18:20.634Z,9.88
2022-07-29T22:20:49.489Z,11.45
2022-07-29T22:23:16.215Z,12.65
2022-07-29T22:25:43.030Z,10.60
2022-07-29T22:28:09.782Z,12.27
2022-07-29T22:30:36.526Z,10.00
2022-07-29T22:33:03.262Z,10.25
2022-07-29T22:35:29.971Z,12.35
2022-07-29T22:37:56.652Z,11.30
2022-07-29T22:40:23.397Z,10.83
2022-07-29T22:42:57.517Z,10.40
2022-07-29T22:45:24.335Z,11.27
2022-07-29T22:47:57.498Z,11.98
2022-07-29T22:50:26.571Z,12.50
2022-07-29T22:52:53.248Z,11.97
2022-07-29T22:55:20.137Z,12.07
2022-07-29T22:57:46.868Z,13.73
2022-07-29T23:00:14.166Z,16.15
2022-07-29T23:02:41.501Z,11.68
2022-07-29T23:05:11.580Z,12.47
2022-07-29T23:07:38.580Z,11.20
2022-07-29T23:10:05.758Z,12.85
2022-07-29T23:12:32.426Z,10.43
2022-07-29T23:14:59.111Z,11.45
2022-07-29T23:17:25.903Z,11.93
2022-07-29T23:19:52.581Z,12.45
2022-07-29T23:22:19.276Z,11.18
2022-07-29T23:24:45.988Z,12.88
2022-07-29T23:27:12.768Z,12.48
2022-07-29T23:29:40.148Z,12.83
2022-07-29T23:32:07.006Z,12.00
2022-07-29T23:34:33.673Z,11.63
2022-07-29T23:37:00.567Z,11.75
2022-07-29T23:39:27.482Z,11.27
2022-07-29T23:41:54.136Z,13.53
2022-07-29T23:44:20.984Z,12.52
2022-07-29T23:46:47.694Z,12.70
2022-07-29T23:49:14.561Z,12.77
2022-07-29T23:51:41.289Z,11.85
2022-07-29T23:54:08.017Z,14.33
2022-07-29T23:56:34.667Z,13.00
2022-07-29T23:59:01.289Z,13.27
